Weather History for KMOX - October, 2011

Change the Weather History Date:

Sunday, October 23, 2011

  Actual Average Record
Temperature  
Mean Temperature 47 °F -  
Max Temperature 57 °F 51 °F 71 °F (1998)
Min Temperature 37 °F 33 °F 21 °F (1999)
Degree Days  
Heating Degree Days 18    
Moisture  
Dew Point 38 °F    
Average Humidity 72    
Maximum Humidity 93    
Minimum Humidity 38    
Precipitation  
Precipitation 0.00 in - - ()
Sea Level Pressure  
Sea Level Pressure 29.83 in    
Wind  
Wind Speed 7 mph (West)    
Max Wind Speed 20 mph    
Max Gust Speed 24 mph    
Visibility 10 miles    
Events      
Averages and records for this station are not official NWS values.
T = Trace of Precipitation, MM = Missing Value Source: NWS Daily Summary

Daily Weather History Graph

Daily Weather History Graph

Search for Another Location

Airport or City:

Trip Planner

Search our weather history database for the weather conditions in past years. The results will help you decide how hot, cold, wet, or windy it might be!

Date:

Astronomy

Oct. 23, 2011 Rise Set
Actual Time 7:50 AM CDT 6:24 PM CDT
Civil Twilight 7:20 AM CDT 6:55 PM CDT
Nautical Twilight 6:45 AM CDT 7:29 PM CDT
Astronomical Twilight 6:11 AM CDT 8:04 PM CDT
Moon 3:48 AM CDT (10/23) 4:24 PM CDT (10/23)
Length of Visible Light 11h 34m
Length of Day
10h 34m
Waning Crescent, 14% of the Moon is Illuminated
Oct 23
Waning Crescent
Oct 26
New
Nov 2
First Quarter
Nov 10
Full
Nov 18
Last Quarter

Hourly Weather History & Observations

Time (CDT) Temp. Windchill Dew Point Humidity Pressure Visibility Wind Dir Wind Speed Gust Speed Precip Events Conditions
12:11 AM 46.4 °F 42.4 °F 39.2 °F 76% 29.84 in 10.0 mi South 8.1 mph - N/A   Clear
12:31 AM 44.6 °F 40.2 °F 39.2 °F 81% 29.84 in 10.0 mi South 8.1 mph - N/A   Clear
12:51 AM 44.6 °F 40.2 °F 39.2 °F 81% 29.84 in 10.0 mi South 8.1 mph - N/A   Clear
1:11 AM 44.6 °F 40.2 °F 39.2 °F 81% 29.83 in 10.0 mi South 8.1 mph - N/A   Clear
1:31 AM 44.6 °F 40.2 °F 39.2 °F 81% 29.83 in 10.0 mi South 8.1 mph - N/A   Clear
1:51 AM 42.8 °F 38.6 °F 39.2 °F 87% 29.82 in 10.0 mi South 6.9 mph - N/A   Clear
2:11 AM 42.8 °F 40.1 °F 39.2 °F 87% 29.82 in 10.0 mi South 4.6 mph - N/A   Clear
2:31 AM 42.8 °F 39.3 °F 37.4 °F 81% 29.82 in 10.0 mi South 5.8 mph - N/A   Clear
2:51 AM 42.8 °F 40.1 °F 39.2 °F 87% 29.82 in 10.0 mi South 4.6 mph - N/A   Clear
3:11 AM 42.8 °F 40.1 °F 37.4 °F 81% 29.81 in 10.0 mi South 4.6 mph - N/A   Clear
3:31 AM 42.8 °F 40.1 °F 39.2 °F 87% 29.80 in 10.0 mi South 4.6 mph - N/A   Clear
3:52 AM 42.8 °F 40.1 °F 37.4 °F 81% 29.80 in 10.0 mi SSE 4.6 mph - N/A   Clear
4:11 AM 42.8 °F 41.1 °F 39.2 °F 87% 29.80 in 10.0 mi SSE 3.5 mph - N/A   Clear
4:31 AM 42.8 °F 41.1 °F 39.2 °F 87% 29.79 in 10.0 mi South 3.5 mph - N/A   Clear
4:51 AM 41.0 °F - 37.4 °F 87% 29.79 in 10.0 mi Calm Calm - N/A   Clear
5:11 AM 41.0 °F 39.0 °F 37.4 °F 87% 29.80 in 10.0 mi SSE 3.5 mph - N/A   Clear
5:31 AM 39.2 °F 37.0 °F 37.4 °F 93% 29.80 in 10.0 mi SSE 3.5 mph - N/A   Clear
5:52 AM 39.2 °F - 37.4 °F 93% 29.80 in 10.0 mi Calm Calm - N/A   Clear
6:11 AM 39.2 °F 35.9 °F 35.6 °F 87% 29.80 in 10.0 mi SE 4.6 mph - N/A   Clear
6:31 AM 37.4 °F 33.8 °F 35.6 °F 93% 29.79 in 10.0 mi SE 4.6 mph - N/A   Clear
6:51 AM 37.4 °F 34.9 °F 33.8 °F 87% 29.80 in 5.0 mi SSE 3.5 mph - N/A   Clear
7:11 AM 37.4 °F 34.9 °F 35.6 °F 93% 29.79 in 10.0 mi South 3.5 mph - N/A   Scattered Clouds
7:31 AM 37.4 °F 33.8 °F 35.6 °F 93% 29.80 in 10.0 mi SW 4.6 mph - N/A   Clear
7:51 AM 41.0 °F 36.4 °F 37.4 °F 87% 29.80 in 10.0 mi WSW 6.9 mph - N/A   Clear
8:11 AM 41.0 °F 36.4 °F 37.4 °F 87% 29.80 in 10.0 mi WSW 6.9 mph - N/A   Clear
8:31 AM 42.8 °F 39.3 °F 39.2 °F 87% 29.80 in 10.0 mi West 5.8 mph - N/A   Clear
8:51 AM 44.6 °F 41.4 °F 39.2 °F 81% 29.80 in 10.0 mi NW 5.8 mph - N/A   Scattered Clouds
9:11 AM 44.6 °F 40.7 °F 39.2 °F 81% 29.80 in 10.0 mi WNW 6.9 mph - N/A   Mostly Cloudy
9:31 AM 46.4 °F 42.9 °F 39.2 °F 76% 29.81 in 10.0 mi West 6.9 mph - N/A   Mostly Cloudy
9:51 AM 46.4 °F - 39.2 °F 76% 29.80 in 10.0 mi Calm Calm - N/A   Light Drizzle
10:11 AM 46.4 °F 42.4 °F 39.2 °F 76% 29.81 in 10.0 mi NW 8.1 mph - N/A   Overcast
10:31 AM 46.4 °F 43.5 °F 41.0 °F 81% 29.79 in 10.0 mi NNW 5.8 mph - N/A   Scattered Clouds
10:51 AM 48.2 °F - 39.2 °F 71% 29.80 in 10.0 mi NNW 6.9 mph - N/A   Scattered Clouds
11:31 AM 51.8 °F - 42.8 °F 71% 29.81 in 10.0 mi NW 13.8 mph - N/A   Mostly Cloudy
12:11 PM 53.6 °F - 42.8 °F 67% 29.82 in 10.0 mi NNW 12.7 mph - N/A   Scattered Clouds
12:31 PM 53.6 °F - 41.0 °F 62% 29.83 in 10.0 mi NNW 15.0 mph - N/A   Scattered Clouds
12:51 PM 55.4 °F - 41.0 °F 58% 29.83 in 10.0 mi NW 16.1 mph - N/A   Scattered Clouds
1:11 PM 55.4 °F - 41.0 °F 58% 29.83 in 10.0 mi NNW 16.1 mph 21.9 mph N/A   Scattered Clouds
1:31 PM 57.2 °F - 39.2 °F 51% 29.83 in 10.0 mi NNW 19.6 mph 24.2 mph N/A   Mostly Cloudy
1:52 PM 57.2 °F - 41.0 °F 55% 29.83 in 10.0 mi North 16.1 mph 19.6 mph N/A   Mostly Cloudy
2:11 PM 57.2 °F - 39.2 °F 51% 29.83 in 10.0 mi NNW 15.0 mph 18.4 mph N/A   Mostly Cloudy
2:51 PM 55.4 °F - 37.4 °F 51% 29.84 in 10.0 mi NW 12.7 mph - N/A   Scattered Clouds
3:11 PM 57.2 °F - 37.4 °F 48% 29.84 in 10.0 mi NNW 15.0 mph 18.4 mph N/A   Clear
3:31 PM 57.2 °F - 37.4 °F 48% 29.84 in 10.0 mi NW 10.4 mph 17.3 mph N/A   Scattered Clouds
3:52 PM 57.2 °F - 35.6 °F 44% 29.85 in 10.0 mi NW 10.4 mph - N/A   Clear
4:11 PM 57.2 °F - 35.6 °F 44% 29.85 in 10.0 mi NW 12.7 mph 17.3 mph N/A   Clear
4:31 PM 57.2 °F - 33.8 °F 41% 29.86 in 10.0 mi NNW 11.5 mph - N/A   Clear
4:51 PM 55.4 °F - 33.8 °F 44% 29.86 in 10.0 mi NW 8.1 mph - N/A   Clear
5:11 PM 55.4 °F - 30.2 °F 38% 29.87 in 10.0 mi NW 11.5 mph - N/A   Clear
5:31 PM 55.4 °F - 33.8 °F 44% 29.87 in 10.0 mi NW 9.2 mph - N/A   Clear
5:51 PM 53.6 °F - 33.8 °F 47% 29.88 in 10.0 mi NW 8.1 mph - N/A   Clear
6:11 PM 51.8 °F - 35.6 °F 54% 29.88 in 10.0 mi WNW 8.1 mph - N/A   Clear
6:31 PM 48.2 °F - 35.6 °F 62% 29.90 in 10.0 mi WNW 6.9 mph - N/A   Clear
6:51 PM 46.4 °F 43.5 °F 33.8 °F 62% 29.90 in 10.0 mi WNW 5.8 mph - N/A   Clear
7:11 PM 46.4 °F 43.5 °F 33.8 °F 62% 29.91 in 10.0 mi West 5.8 mph - N/A   Clear
7:31 PM 46.4 °F 43.5 °F 33.8 °F 62% 29.91 in 10.0 mi West 5.8 mph - N/A   Clear
7:52 PM 44.6 °F 40.7 °F 32.0 °F 61% 29.92 in 10.0 mi West 6.9 mph - N/A   Clear
8:11 PM 44.6 °F 42.2 °F 32.0 °F 61% 29.92 in 10.0 mi West 4.6 mph - N/A   Clear
8:31 PM 44.6 °F 42.2 °F 32.0 °F 61% 29.92 in 10.0 mi West 4.6 mph - N/A   Clear
8:51 PM 42.8 °F 40.1 °F 32.0 °F 66% 29.92 in 10.0 mi West 4.6 mph - N/A   Clear
9:11 PM 44.6 °F 42.2 °F 32.0 °F 61% 29.93 in 10.0 mi West 4.6 mph - N/A   Clear
9:31 PM 42.8 °F 40.1 °F 32.0 °F 66% 29.93 in 10.0 mi WSW 4.6 mph - N/A   Clear
9:51 PM 41.0 °F 37.1 °F 30.2 °F 65% 29.93 in 10.0 mi West 5.8 mph - N/A   Clear
10:11 PM 41.0 °F 38.0 °F 32.0 °F 70% 29.93 in 10.0 mi West 4.6 mph - N/A   Clear
10:31 PM 37.4 °F 32.8 °F 30.2 °F 75% 29.93 in 10.0 mi West 5.8 mph - N/A   Clear
10:51 PM 39.2 °F 35.0 °F 30.2 °F 70% 29.93 in 10.0 mi West 5.8 mph - N/A   Clear
11:11 PM 37.4 °F 32.8 °F 30.2 °F 75% 29.93 in 10.0 mi West 5.8 mph - N/A   Clear
11:31 PM 39.2 °F 35.9 °F 32.0 °F 75% 29.94 in 10.0 mi West 4.6 mph - N/A   Clear